Time,TemperatureF,DewpointF,PressureIn,WindDirection,WindDirectionDegrees,WindSpeedMPH,WindSpeedGustMPH,Humidity,HourlyPrecipIn,Conditions,Clouds,dailyrainin,SoftwareType,DateUTC
2013-04-08 00:00:00,39.9,34.5,30.04,East,90,1.0,2.0,81,0.00,,,0.00,meteohub,2013-04-08 04:00:00,
2013-04-08 00:04:00,39.7,34.3,30.04,East,90,0.0,2.0,81,0.00,,,0.00,meteohub,2013-04-08 04:04:00,
2013-04-08 00:06:00,39.7,34.3,30.04,East,90,1.0,2.0,81,0.00,,,0.00,meteohub,2013-04-08 04:06:00,
2013-04-08 00:12:00,39.7,34.3,30.04,East,90,0.0,3.0,81,0.00,,,0.00,meteohub,2013-04-08 04:12:00,
2013-04-08 00:17:00,39.7,34.3,30.05,East,90,0.0,3.0,81,0.00,,,0.00,meteohub,2013-04-08 04:17:00,
2013-04-08 00:22:00,39.7,34.3,30.05,East,90,0.0,3.0,81,0.00,,,0.00,meteohub,2013-04-08 04:22:00,
2013-04-08 00:27:00,39.7,34.3,30.05,East,90,0.0,1.0,81,0.00,,,0.00,meteohub,2013-04-08 04:27:00,
2013-04-08 00:32:00,39.6,34.2,30.05,East,90,0.0,1.0,81,0.00,,,0.00,meteohub,2013-04-08 04:32:00,
2013-04-08 00:38:00,39.6,34.2,30.05,East,90,0.0,1.0,81,0.00,,,0.00,meteohub,2013-04-08 04:38:00,
2013-04-08 00:43:00,39.4,34.0,30.06,East,90,0.0,0.0,81,0.00,,,0.00,meteohub,2013-04-08 04:43:00,
2013-04-08 00:48:00,39.0,34.0,30.06,East,90,0.0,0.0,82,0.00,,,0.00,meteohub,2013-04-08 04:48:00,
2013-04-08 00:54:00,39.0,34.0,30.06,East,90,0.0,0.0,82,0.00,,,0.00,meteohub,2013-04-08 04:54:00,
2013-04-08 00:59:00,38.8,33.8,30.06,East,90,0.0,0.0,82,0.00,,,0.00,meteohub,2013-04-08 04:59:00,
2013-04-08 01:04:00,38.8,34.2,30.06,East,90,0.0,0.0,83,0.00,,,0.00,meteohub,2013-04-08 05:04:00,
2013-04-08 01:10:00,38.7,34.0,30.06,East,90,0.0,0.0,83,0.00,,,0.00,meteohub,2013-04-08 05:10:00,
2013-04-08 01:15:00,38.7,34.0,30.06,East,90,0.0,0.0,83,0.00,,,0.00,meteohub,2013-04-08 05:15:00,
2013-04-08 01:20:00,38.7,34.0,30.06,East,90,0.0,1.0,83,0.00,,,0.00,meteohub,2013-04-08 05:20:00,
2013-04-08 01:25:00,38.5,33.8,30.06,East,90,0.0,1.0,83,0.00,,,0.00,meteohub,2013-04-08 05:25:00,
2013-04-08 01:30:00,38.3,33.6,30.06,East,90,0.0,1.0,83,0.00,,,0.00,meteohub,2013-04-08 05:30:00,
2013-04-08 01:35:00,38.1,33.8,30.07,East,90,0.0,1.0,84,0.00,,,0.00,meteohub,2013-04-08 05:35:00,
2013-04-08 01:41:00,37.9,33.6,30.07,East,90,0.0,1.0,84,0.00,,,0.00,meteohub,2013-04-08 05:41:00,
2013-04-08 01:46:00,37.9,33.6,30.07,East,90,0.0,0.0,84,0.00,,,0.00,meteohub,2013-04-08 05:46:00,
2013-04-08 01:51:00,37.8,33.4,30.07,East,90,0.0,0.0,84,0.00,,,0.00,meteohub,2013-04-08 05:51:00,
2013-04-08 01:56:00,37.6,33.3,30.07,East,90,0.0,0.0,84,0.00,,,0.00,meteohub,2013-04-08 05:56:00,
2013-04-08 02:02:00,37.2,33.1,30.07,East,90,0.0,0.0,85,0.00,,,0.00,meteohub,2013-04-08 06:02:00,
2013-04-08 02:07:00,37.0,32.9,30.07,East,90,0.0,0.0,85,0.00,,,0.00,meteohub,2013-04-08 06:07:00,
2013-04-08 02:12:00,37.0,33.3,30.06,East,90,0.0,0.0,86,0.00,,,0.00,meteohub,2013-04-08 06:12:00,
2013-04-08 02:17:00,37.2,33.4,30.06,East,90,0.0,2.0,86,0.00,,,0.00,meteohub,2013-04-08 06:17:00,
2013-04-08 02:22:00,37.0,33.3,30.07,East,90,0.0,2.0,86,0.00,,,0.00,meteohub,2013-04-08 06:22:00,
2013-04-08 02:27:00,37.0,33.3,30.07,East,90,0.0,1.0,86,0.00,,,0.00,meteohub,2013-04-08 06:27:00,
2013-04-08 02:32:00,37.0,33.3,30.07,East,90,0.0,0.0,86,0.00,,,0.00,meteohub,2013-04-08 06:32:00,
2013-04-08 02:37:00,36.9,33.1,30.06,East,90,1.0,0.0,86,0.00,,,0.00,meteohub,2013-04-08 06:37:00,
2013-04-08 02:42:00,36.9,33.1,30.06,East,90,0.0,2.0,86,0.00,,,0.00,meteohub,2013-04-08 06:42:00,
2013-04-08 02:48:00,36.7,32.9,30.06,East,90,0.0,2.0,86,0.00,,,0.00,meteohub,2013-04-08 06:48:00,
2013-04-08 02:53:00,36.3,32.5,30.06,East,90,0.0,2.0,86,0.00,,,0.00,meteohub,2013-04-08 06:53:00,
2013-04-08 02:58:00,36.1,32.7,30.06,East,90,0.0,0.0,87,0.00,,,0.00,meteohub,2013-04-08 06:58:00,
2013-04-08 03:04:00,36.1,32.7,30.06,East,90,0.0,0.0,87,0.00,,,0.00,meteohub,2013-04-08 07:04:00,
2013-04-08 03:09:00,36.0,32.5,30.06,East,90,0.0,0.0,87,0.00,,,0.00,meteohub,2013-04-08 07:09:00,
2013-04-08 03:14:00,36.0,32.5,30.06,East,90,0.0,1.0,87,0.00,,,0.00,meteohub,2013-04-08 07:14:00,
2013-04-08 03:19:00,35.8,32.5,30.06,East,90,0.0,1.0,88,0.00,,,0.00,meteohub,2013-04-08 07:19:00,
2013-04-08 03:24:00,35.8,32.5,30.06,East,90,0.0,0.0,88,0.00,,,0.00,meteohub,2013-04-08 07:24:00,
2013-04-08 03:30:00,35.4,32.2,30.06,East,90,0.0,0.0,88,0.00,,,0.00,meteohub,2013-04-08 07:30:00,
2013-04-08 03:35:00,35.4,32.5,30.06,East,90,0.0,0.0,89,0.00,,,0.00,meteohub,2013-04-08 07:35:00,
2013-04-08 03:40:00,35.8,33.1,30.06,East,90,0.0,1.0,90,0.00,,,0.00,meteohub,2013-04-08 07:40:00,
2013-04-08 03:45:00,36.0,33.3,30.06,East,90,0.0,1.0,90,0.00,,,0.00,meteohub,2013-04-08 07:45:00,
2013-04-08 03:51:00,36.3,33.4,30.05,East,90,1.0,2.0,89,0.00,,,0.00,meteohub,2013-04-08 07:51:00,
2013-04-08 03:56:00,36.3,33.4,30.06,East,90,0.0,2.0,89,0.00,,,0.00,meteohub,2013-04-08 07:56:00,
2013-04-08 04:01:00,36.3,33.1,30.06,East,90,0.0,2.0,88,0.00,,,0.00,meteohub,2013-04-08 08:01:00,
2013-04-08 04:06:00,36.3,33.1,30.06,East,90,0.0,1.0,88,0.00,,,0.00,meteohub,2013-04-08 08:06:00,
2013-04-08 04:12:00,36.3,33.4,30.06,East,90,0.0,2.0,89,0.00,,,0.00,meteohub,2013-04-08 08:12:00,
2013-04-08 04:17:00,36.3,33.1,30.06,East,90,0.0,2.0,88,0.00,,,0.00,meteohub,2013-04-08 08:17:00,
2013-04-08 04:22:00,36.1,32.9,30.06,East,90,0.0,2.0,88,0.00,,,0.00,meteohub,2013-04-08 08:22:00,
2013-04-08 04:27:00,36.0,32.7,30.06,East,90,0.0,0.0,88,0.00,,,0.00,meteohub,2013-04-08 08:27:00,
2013-04-08 04:32:00,36.0,33.1,30.06,East,90,0.0,0.0,89,0.00,,,0.00,meteohub,2013-04-08 08:32:00,
2013-04-08 04:37:00,35.8,32.9,30.06,East,90,0.0,0.0,89,0.00,,,0.00,meteohub,2013-04-08 08:37:00,
2013-04-08 04:42:00,35.6,32.7,30.06,East,90,0.0,0.0,89,0.00,,,0.00,meteohub,2013-04-08 08:42:00,
2013-04-08 04:47:00,35.4,32.5,30.06,East,90,0.0,0.0,89,0.00,,,0.00,meteohub,2013-04-08 08:47:00,
2013-04-08 04:53:00,35.4,32.5,30.06,East,90,0.0,0.0,89,0.00,,,0.00,meteohub,2013-04-08 08:53:00,
2013-04-08 04:58:00,35.4,32.7,30.06,East,90,0.0,1.0,90,0.00,,,0.00,meteohub,2013-04-08 08:58:00,
2013-04-08 05:03:00,35.2,32.4,30.05,East,90,0.0,1.0,89,0.00,,,0.00,meteohub,2013-04-08 09:03:00,
2013-04-08 05:08:00,35.1,32.2,30.05,East,90,0.0,0.0,89,0.00,,,0.00,meteohub,2013-04-08 09:08:00,
2013-04-08 05:13:00,35.1,32.4,30.05,East,90,0.0,0.0,90,0.00,,,0.00,meteohub,2013-04-08 09:13:00,
2013-04-08 05:18:00,35.1,32.4,30.05,East,90,0.0,1.0,90,0.00,,,0.00,meteohub,2013-04-08 09:18:00,
2013-04-08 05:24:00,35.1,32.7,30.05,East,90,0.0,1.0,91,0.00,,,0.00,meteohub,2013-04-08 09:24:00,
2013-04-08 05:29:00,35.1,32.7,30.05,East,90,0.0,1.0,91,0.00,,,0.00,meteohub,2013-04-08 09:29:00,
2013-04-08 05:34:00,35.1,32.7,30.04,East,90,2.0,2.0,91,0.00,,,0.00,meteohub,2013-04-08 09:34:00,
2013-04-08 05:39:00,35.4,33.1,30.04,East,90,0.0,1.0,91,0.00,,,0.00,meteohub,2013-04-08 09:39:00,
2013-04-08 05:45:00,35.4,33.1,30.04,East,91,0.0,3.0,91,0.00,,,0.00,meteohub,2013-04-08 09:45:00,
2013-04-08 05:50:00,35.6,33.3,30.04,East,90,0.0,0.0,91,0.00,,,0.00,meteohub,2013-04-08 09:50:00,
2013-04-08 05:55:00,35.6,32.9,30.04,East,91,0.0,0.0,90,0.00,,,0.00,meteohub,2013-04-08 09:55:00,
2013-04-08 06:01:00,35.8,33.4,30.04,East,92,0.0,1.0,91,0.00,,,0.00,meteohub,2013-04-08 10:01:00,
2013-04-08 06:06:00,36.1,33.8,30.04,South,180,0.0,3.0,91,0.00,,,0.00,meteohub,2013-04-08 10:06:00,
2013-04-08 06:12:00,36.3,33.4,30.04,South,180,1.0,3.0,89,0.00,,,0.00,meteohub,2013-04-08 10:12:00,
2013-04-08 06:17:00,36.3,33.4,30.04,South,180,2.0,3.0,89,0.00,,,0.00,meteohub,2013-04-08 10:17:00,
2013-04-08 06:22:00,36.3,33.4,30.04,South,180,1.0,2.0,89,0.00,,,0.00,meteohub,2013-04-08 10:22:00,
2013-04-08 06:27:00,36.7,33.8,30.04,South,170,0.0,2.0,89,0.00,,,0.00,meteohub,2013-04-08 10:27:00,
2013-04-08 06:32:00,36.7,33.8,30.05,South,170,1.0,3.0,89,0.00,,,0.00,meteohub,2013-04-08 10:32:00,
2013-04-08 06:38:00,36.9,33.6,30.05,South,170,1.0,3.0,88,0.00,,,0.00,meteohub,2013-04-08 10:38:00,
2013-04-08 06:43:00,36.9,33.6,30.05,South,170,1.0,2.0,88,0.00,,,0.00,meteohub,2013-04-08 10:43:00,
2013-04-08 06:49:00,36.9,33.6,30.05,South,171,0.0,3.0,88,0.00,,,0.00,meteohub,2013-04-08 10:49:00,
2013-04-08 06:54:00,36.9,33.6,30.04,South,171,0.0,3.0,88,0.00,,,0.00,meteohub,2013-04-08 10:54:00,
2013-04-08 06:59:00,37.0,33.8,30.04,South,171,0.0,3.0,88,0.00,,,0.00,meteohub,2013-04-08 10:59:00,
2013-04-08 07:05:00,36.9,33.6,30.05,South,171,0.0,2.0,88,0.00,,,0.00,meteohub,2013-04-08 11:05:00,
2013-04-08 07:10:00,36.7,33.4,30.05,South,171,0.0,1.0,88,0.00,,,0.00,meteohub,2013-04-08 11:10:00,
2013-04-08 07:15:00,36.3,33.1,30.05,South,171,0.0,0.0,88,0.00,,,0.00,meteohub,2013-04-08 11:15:00,
2013-04-08 07:20:00,36.3,33.1,30.06,South,171,0.0,1.0,88,0.00,,,0.00,meteohub,2013-04-08 11:20:00,
2013-04-08 07:25:00,36.5,33.6,30.06,South,171,2.0,2.0,89,0.00,,,0.00,meteohub,2013-04-08 11:25:00,
2013-04-08 07:31:00,36.7,33.8,30.06,South,171,2.0,3.0,89,0.00,,,0.00,meteohub,2013-04-08 11:31:00,
2013-04-08 07:36:00,36.9,34.0,30.06,South,171,2.0,3.0,89,0.00,,,0.00,meteohub,2013-04-08 11:36:00,
2013-04-08 07:41:00,37.4,34.5,30.06,SSW,209,3.0,7.0,89,0.00,,,0.00,meteohub,2013-04-08 11:41:00,
2013-04-08 07:46:00,37.8,34.9,30.07,SSW,205,4.0,8.0,89,0.00,,,0.00,meteohub,2013-04-08 11:46:00,
2013-04-08 07:51:00,37.9,35.1,30.07,WSW,249,5.0,8.0,89,0.00,,,0.00,meteohub,2013-04-08 11:51:00,
2013-04-08 07:57:00,38.1,34.9,30.07,SW,219,4.0,8.0,88,0.00,,,0.00,meteohub,2013-04-08 11:57:00,
2013-04-08 08:02:00,38.5,35.2,30.07,SW,226,6.0,8.0,88,0.00,,,0.00,meteohub,2013-04-08 12:02:00,
2013-04-08 08:07:00,38.8,35.6,30.07,WSW,250,4.0,8.0,88,0.00,,,0.00,meteohub,2013-04-08 12:07:00,
2013-04-08 08:13:00,38.8,35.2,30.08,SSW,207,4.0,8.0,87,0.00,,,0.00,meteohub,2013-04-08 12:13:00,
2013-04-08 08:18:00,38.8,35.6,30.07,WSW,248,4.0,9.0,88,0.00,,,0.00,meteohub,2013-04-08 12:18:00,
2013-04-08 08:23:00,39.0,35.8,30.07,SW,216,5.0,9.0,88,0.00,,,0.00,meteohub,2013-04-08 12:23:00,
2013-04-08 08:28:00,39.4,36.1,30.07,SW,229,3.0,8.0,88,0.00,,,0.00,meteohub,2013-04-08 12:28:00,
2013-04-08 08:34:00,39.9,36.3,30.07,SW,228,5.0,7.0,87,0.00,,,0.00,meteohub,2013-04-08 12:34:00,
2013-04-08 08:39:00,40.5,36.7,30.07,SSW,205,5.0,11.0,86,0.00,,,0.00,meteohub,2013-04-08 12:39:00,
2013-04-08 08:45:00,40.6,36.5,30.06,SSW,200,9.0,11.0,85,0.00,,,0.00,meteohub,2013-04-08 12:45:00,
2013-04-08 08:50:00,41.2,37.0,30.06,SSW,196,4.0,12.0,85,0.00,,,0.00,meteohub,2013-04-08 12:50:00,
2013-04-08 08:55:00,41.7,37.2,30.06,SW,236,6.0,12.0,84,0.00,,,0.00,meteohub,2013-04-08 12:55:00,
2013-04-08 09:00:00,42.3,37.8,30.06,SSW,213,4.0,9.0,84,0.00,,,0.00,meteohub,2013-04-08 13:00:00,
2013-04-08 09:05:00,43.2,38.3,30.06,SW,219,3.0,9.0,83,0.00,,,0.00,meteohub,2013-04-08 13:05:00,
2013-04-08 09:11:00,43.7,38.3,30.05,South,182,5.0,9.0,81,0.00,,,0.00,meteohub,2013-04-08 13:11:00,
2013-04-08 09:16:00,44.4,38.7,30.05,South,179,8.0,9.0,80,0.00,,,0.00,meteohub,2013-04-08 13:16:00,
2013-04-08 09:21:00,45.1,39.0,30.05,SW,234,4.0,11.0,79,0.00,,,0.00,meteohub,2013-04-08 13:21:00,
2013-04-08 09:27:00,45.9,39.0,30.05,SSW,207,6.0,11.0,77,0.00,,,0.00,meteohub,2013-04-08 13:27:00,
2013-04-08 09:32:00,46.6,39.4,30.04,SSW,194,9.0,14.0,76,0.00,,,0.00,meteohub,2013-04-08 13:32:00,
2013-04-08 09:37:00,47.1,39.6,30.05,SW,222,11.0,14.0,75,0.00,,,0.00,meteohub,2013-04-08 13:37:00,
2013-04-08 09:42:00,47.7,40.1,30.04,SSW,193,1.0,12.0,75,0.00,,,0.00,meteohub,2013-04-08 13:42:00,
2013-04-08 09:47:00,48.6,40.6,30.04,SSW,194,7.0,12.0,74,0.00,,,0.00,meteohub,2013-04-08 13:47:00,
2013-04-08 09:53:00,48.9,40.3,30.04,SSW,213,6.0,12.0,72,0.00,,,0.00,meteohub,2013-04-08 13:53:00,
2013-04-08 09:58:00,49.6,41.0,30.04,South,181,6.0,11.0,72,0.00,,,0.00,meteohub,2013-04-08 13:58:00,
2013-04-08 10:03:00,50.4,41.0,30.03,WSW,242,3.0,11.0,70,0.00,,,0.00,meteohub,2013-04-08 14:03:00,
2013-04-08 10:08:00,51.3,41.0,30.03,SSW,198,5.0,11.0,68,0.00,,,0.00,meteohub,2013-04-08 14:08:00,
2013-04-08 10:14:00,52.0,41.4,30.03,South,190,10.0,10.0,67,0.00,,,0.00,meteohub,2013-04-08 14:14:00,
2013-04-08 10:19:00,52.2,41.2,30.03,SSW,207,4.0,13.0,66,0.00,,,0.00,meteohub,2013-04-08 14:19:00,
2013-04-08 10:25:00,52.3,41.0,30.03,SSW,206,5.0,13.0,65,0.00,,,0.00,meteohub,2013-04-08 14:25:00,
2013-04-08 10:30:00,53.1,42.4,30.03,SSW,195,4.0,13.0,67,0.00,,,0.00,meteohub,2013-04-08 14:30:00,
2013-04-08 10:35:00,53.2,41.4,30.02,SW,227,8.0,15.0,64,0.00,,,0.00,meteohub,2013-04-08 14:35:00,
2013-04-08 10:41:00,53.6,41.7,30.03,SW,227,5.0,18.0,64,0.00,,,0.00,meteohub,2013-04-08 14:41:00,
2013-04-08 10:46:00,54.0,41.7,30.02,SW,216,6.0,18.0,63,0.00,,,0.00,meteohub,2013-04-08 14:46:00,
2013-04-08 10:52:00,54.5,42.6,30.02,SW,223,11.0,14.0,64,0.00,,,0.00,meteohub,2013-04-08 14:52:00,
2013-04-08 10:57:00,55.0,42.6,30.02,SSW,209,7.0,14.0,63,0.00,,,0.00,meteohub,2013-04-08 14:57:00,
2013-04-08 11:02:00,55.6,44.1,30.02,SW,232,4.0,13.0,65,0.00,,,0.00,meteohub,2013-04-08 15:02:00,
2013-04-08 11:07:00,55.9,43.9,30.02,SW,217,2.0,13.0,64,0.00,,,0.00,meteohub,2013-04-08 15:07:00,
2013-04-08 11:12:00,55.9,43.5,30.02,WSW,238,4.0,13.0,63,0.00,,,0.00,meteohub,2013-04-08 15:12:00,
2013-04-08 11:17:00,55.4,43.3,30.02,SW,232,4.0,11.0,64,0.00,,,0.00,meteohub,2013-04-08 15:17:00,
2013-04-08 11:22:00,55.0,43.9,30.02,WSW,242,4.0,11.0,66,0.00,,,0.00,meteohub,2013-04-08 15:22:00,
2013-04-08 11:28:00,54.9,43.3,30.01,SSW,202,4.0,11.0,65,0.00,,,0.00,meteohub,2013-04-08 15:28:00,
2013-04-08 11:33:00,55.0,43.5,30.01,West,268,7.0,12.0,65,0.00,,,0.00,meteohub,2013-04-08 15:33:00,
2013-04-08 11:39:00,55.6,44.1,30.01,SW,218,3.0,12.0,65,0.00,,,0.00,meteohub,2013-04-08 15:39:00,
2013-04-08 11:44:00,56.1,44.1,30.01,South,191,5.0,12.0,64,0.00,,,0.00,meteohub,2013-04-08 15:44:00,
2013-04-08 11:49:00,56.3,43.5,30.00,South,188,8.0,11.0,62,0.00,,,0.00,meteohub,2013-04-08 15:49:00,
2013-04-08 11:54:00,56.3,43.9,30.00,WSW,246,3.0,13.0,63,0.00,,,0.00,meteohub,2013-04-08 15:54:00,
2013-04-08 11:59:00,56.7,43.7,30.00,South,169,3.0,13.0,62,0.00,,,0.00,meteohub,2013-04-08 15:59:00,
2013-04-08 12:04:00,57.0,44.1,30.00,SSW,210,6.0,13.0,62,0.00,,,0.00,meteohub,2013-04-08 16:04:00,
2013-04-08 12:10:00,57.6,44.6,29.99,WSW,240,5.0,10.0,62,0.00,,,0.00,meteohub,2013-04-08 16:10:00,
2013-04-08 12:15:00,58.1,45.1,30.00,West,279,3.0,11.0,62,0.00,,,0.00,meteohub,2013-04-08 16:15:00,
2013-04-08 12:20:00,58.5,44.6,29.99,SW,225,3.0,11.0,60,0.00,,,0.00,meteohub,2013-04-08 16:20:00,
2013-04-08 12:26:00,58.5,45.5,29.98,West,265,4.0,11.0,62,0.00,,,0.00,meteohub,2013-04-08 16:26:00,
2013-04-08 12:31:00,58.6,45.7,29.98,SW,220,6.0,9.0,62,0.00,,,0.00,meteohub,2013-04-08 16:31:00,
2013-04-08 12:36:00,58.6,45.7,29.97,SW,235,4.0,11.0,62,0.00,,,0.00,meteohub,2013-04-08 16:36:00,
2013-04-08 12:42:00,59.0,45.5,29.97,South,179,9.0,12.0,61,0.00,,,0.00,meteohub,2013-04-08 16:42:00,
2013-04-08 12:47:00,59.7,46.8,29.97,SSW,202,8.0,12.0,62,0.00,,,0.00,meteohub,2013-04-08 16:47:00,
2013-04-08 12:52:00,60.1,47.5,29.96,SSW,196,5.0,13.0,63,0.00,,,0.00,meteohub,2013-04-08 16:52:00,
2013-04-08 12:58:00,60.8,47.3,29.96,SW,231,4.0,13.0,61,0.00,,,0.00,meteohub,2013-04-08 16:58:00,
2013-04-08 13:03:00,61.5,48.4,29.96,SW,233,1.0,13.0,62,0.00,,,0.00,meteohub,2013-04-08 17:03:00,
2013-04-08 13:08:00,62.2,48.2,29.96,SSW,211,4.0,14.0,60,0.00,,,0.00,meteohub,2013-04-08 17:08:00,
2013-04-08 13:13:00,62.6,47.7,29.95,WNW,293,8.0,14.0,58,0.00,,,0.00,meteohub,2013-04-08 17:13:00,
2013-04-08 13:18:00,63.0,48.4,29.95,SSW,212,5.0,14.0,59,0.00,,,0.00,meteohub,2013-04-08 17:18:00,
2013-04-08 13:24:00,63.7,48.2,29.94,NW,312,5.0,12.0,57,0.00,,,0.00,meteohub,2013-04-08 17:24:00,
2013-04-08 13:29:00,63.7,48.2,29.94,SW,227,9.0,12.0,57,0.00,,,0.00,meteohub,2013-04-08 17:29:00,
2013-04-08 13:34:00,64.2,48.7,29.94,WSW,242,2.0,12.0,57,0.00,,,0.00,meteohub,2013-04-08 17:34:00,
2013-04-08 13:40:00,64.6,48.6,29.94,WSW,255,4.0,12.0,56,0.00,,,0.00,meteohub,2013-04-08 17:40:00,
2013-04-08 13:45:00,64.8,49.1,29.93,South,190,4.0,16.0,57,0.00,,,0.00,meteohub,2013-04-08 17:45:00,
2013-04-08 13:50:00,65.3,49.6,29.93,SW,222,5.0,16.0,57,0.00,,,0.00,meteohub,2013-04-08 17:50:00,
2013-04-08 13:56:00,65.8,49.6,29.93,South,182,8.0,12.0,56,0.00,,,0.00,meteohub,2013-04-08 17:56:00,
2013-04-08 14:01:00,66.0,49.5,29.93,SW,232,9.0,13.0,55,0.00,,,0.00,meteohub,2013-04-08 18:01:00,
2013-04-08 14:06:00,66.0,48.9,29.92,WNW,292,7.0,13.0,54,0.00,,,0.00,meteohub,2013-04-08 18:06:00,
2013-04-08 14:12:00,66.0,49.5,29.93,SW,217,6.0,13.0,55,0.00,,,0.00,meteohub,2013-04-08 18:12:00,
2013-04-08 14:17:00,65.8,49.3,29.92,West,269,4.0,12.0,55,0.00,,,0.00,meteohub,2013-04-08 18:17:00,
2013-04-08 14:22:00,65.8,49.3,29.92,West,271,7.0,12.0,55,0.00,,,0.00,meteohub,2013-04-08 18:22:00,
2013-04-08 14:27:00,66.0,49.5,29.92,West,281,4.0,9.0,55,0.00,,,0.00,meteohub,2013-04-08 18:27:00,
2013-04-08 14:32:00,66.2,48.6,29.92,WNW,289,8.0,9.0,53,0.00,,,0.00,meteohub,2013-04-08 18:32:00,
2013-04-08 14:37:00,66.4,48.2,29.92,SW,235,4.0,15.0,52,0.00,,,0.00,meteohub,2013-04-08 18:37:00,
2013-04-08 14:42:00,66.4,48.7,29.92,WNW,284,6.0,15.0,53,0.00,,,0.00,meteohub,2013-04-08 18:42:00,
2013-04-08 14:47:00,66.9,49.8,29.91,WSW,243,8.0,15.0,54,0.00,,,0.00,meteohub,2013-04-08 18:47:00,
2013-04-08 14:53:00,67.6,49.5,29.89,SSW,199,7.0,14.0,52,0.00,,,0.00,meteohub,2013-04-08 18:53:00,
2013-04-08 14:58:00,68.4,49.5,29.89,WSW,242,2.0,13.0,51,0.00,,,0.00,meteohub,2013-04-08 18:58:00,
2013-04-08 15:03:00,68.7,49.3,29.89,West,263,4.0,16.0,50,0.00,,,0.00,meteohub,2013-04-08 19:03:00,
2013-04-08 15:08:00,68.5,48.6,29.89,WSW,248,11.0,16.0,49,0.00,,,0.00,meteohub,2013-04-08 19:08:00,
2013-04-08 15:14:00,67.8,49.1,29.89,West,262,5.0,16.0,51,0.00,,,0.00,meteohub,2013-04-08 19:14:00,
2013-04-08 15:20:00,67.5,48.7,29.89,NW,321,6.0,16.0,51,0.00,,,0.00,meteohub,2013-04-08 19:20:00,
2013-04-08 15:25:00,67.5,49.3,29.88,NNW,333,2.0,13.0,52,0.00,,,0.00,meteohub,2013-04-08 19:25:00,
2013-04-08 15:31:00,67.6,48.9,29.88,WSW,247,2.0,15.0,51,0.00,,,0.00,meteohub,2013-04-08 19:31:00,
2013-04-08 15:36:00,67.8,49.1,29.88,West,275,5.0,15.0,51,0.00,,,0.00,meteohub,2013-04-08 19:36:00,
2013-04-08 15:41:00,67.8,48.6,29.87,SW,219,6.0,19.0,50,0.00,,,0.00,meteohub,2013-04-08 19:41:00,
2013-04-08 15:46:00,68.2,48.9,29.87,NW,318,6.0,19.0,50,0.00,,,0.00,meteohub,2013-04-08 19:46:00,
2013-04-08 15:51:00,68.4,48.4,29.87,WNW,302,3.0,19.0,49,0.00,,,0.00,meteohub,2013-04-08 19:51:00,
2013-04-08 15:57:00,68.4,48.4,29.88,West,269,6.0,18.0,49,0.00,,,0.00,meteohub,2013-04-08 19:57:00,
2013-04-08 16:02:00,68.2,48.4,29.88,WSW,238,4.0,18.0,49,0.00,,,0.00,meteohub,2013-04-08 20:02:00,
2013-04-08 16:07:00,68.0,48.2,29.87,SW,236,5.0,18.0,49,0.00,,,0.00,meteohub,2013-04-08 20:07:00,
2013-04-08 16:12:00,67.8,48.6,29.87,WNW,299,4.0,17.0,50,0.00,,,0.00,meteohub,2013-04-08 20:12:00,
2013-04-08 16:17:00,67.8,48.6,29.87,West,275,6.0,14.0,50,0.00,,,0.00,meteohub,2013-04-08 20:17:00,
2013-04-08 16:22:00,68.2,48.4,29.87,WNW,293,18.0,18.0,49,0.00,,,0.00,meteohub,2013-04-08 20:22:00,
2013-04-08 16:28:00,68.2,48.4,29.87,NW,315,7.0,18.0,49,0.00,,,0.00,meteohub,2013-04-08 20:28:00,
2013-04-08 16:33:00,68.4,48.4,29.87,NW,313,7.0,19.0,49,0.00,,,0.00,meteohub,2013-04-08 20:33:00,
2013-04-08 16:38:00,68.5,48.6,29.87,SW,236,6.0,19.0,49,0.00,,,0.00,meteohub,2013-04-08 20:38:00,
2013-04-08 16:43:00,69.1,49.1,29.87,WSW,240,5.0,19.0,49,0.00,,,0.00,meteohub,2013-04-08 20:43:00,
2013-04-08 16:49:00,69.4,48.9,29.86,WSW,242,3.0,18.0,48,0.00,,,0.00,meteohub,2013-04-08 20:49:00,
2013-04-08 16:54:00,69.1,48.6,29.87,West,267,8.0,20.0,48,0.00,,,0.00,meteohub,2013-04-08 20:54:00,
2013-04-08 17:00:00,68.5,48.6,29.86,SW,219,10.0,20.0,49,0.00,,,0.00,meteohub,2013-04-08 21:00:00,
2013-04-08 17:05:00,68.5,48.6,29.86,WNW,302,12.0,20.0,49,0.00,,,0.00,meteohub,2013-04-08 21:05:00,
2013-04-08 17:10:00,68.5,48.6,29.86,West,269,12.0,20.0,49,0.00,,,0.00,meteohub,2013-04-08 21:10:00,
2013-04-08 17:16:00,68.5,48.6,29.86,WNW,291,8.0,19.0,49,0.00,,,0.00,meteohub,2013-04-08 21:16:00,
2013-04-08 17:21:00,68.5,49.1,29.86,NW,326,9.0,19.0,50,0.00,,,0.00,meteohub,2013-04-08 21:21:00,
2013-04-08 17:26:00,68.5,49.1,29.86,West,261,7.0,22.0,50,0.00,,,0.00,meteohub,2013-04-08 21:26:00,
2013-04-08 17:31:00,68.5,49.1,29.86,WNW,295,11.0,22.0,50,0.00,,,0.00,meteohub,2013-04-08 21:31:00,
2013-04-08 17:37:00,68.4,49.5,29.86,NW,316,12.0,22.0,51,0.00,,,0.00,meteohub,2013-04-08 21:37:00,
2013-04-08 17:42:00,68.2,49.3,29.86,WSW,258,5.0,18.0,51,0.00,,,0.00,meteohub,2013-04-08 21:42:00,
2013-04-08 17:47:00,68.2,49.3,29.86,WSW,245,4.0,16.0,51,0.00,,,0.00,meteohub,2013-04-08 21:47:00,
2013-04-08 17:53:00,67.8,49.6,29.86,NNW,339,13.0,19.0,52,0.00,,,0.00,meteohub,2013-04-08 21:53:00,
2013-04-08 17:58:00,67.6,49.5,29.86,WNW,291,8.0,19.0,52,0.00,,,0.00,meteohub,2013-04-08 21:58:00,
2013-04-08 18:03:00,67.5,49.3,29.86,SW,215,8.0,19.0,52,0.00,,,0.00,meteohub,2013-04-08 22:03:00,
2013-04-08 18:09:00,67.5,49.3,29.86,WSW,238,3.0,25.0,52,0.00,,,0.00,meteohub,2013-04-08 22:09:00,
2013-04-08 18:14:00,67.5,49.8,29.86,WSW,257,2.0,25.0,53,0.00,,,0.00,meteohub,2013-04-08 22:14:00,
2013-04-08 18:19:00,67.6,49.8,29.85,West,263,6.0,17.0,53,0.00,,,0.00,meteohub,2013-04-08 22:19:00,
2013-04-08 18:24:00,67.6,49.8,29.86,WSW,245,5.0,17.0,53,0.00,,,0.00,meteohub,2013-04-08 22:24:00,
2013-04-08 18:29:00,67.5,49.8,29.86,WNW,301,7.0,17.0,53,0.00,,,0.00,meteohub,2013-04-08 22:29:00,
2013-04-08 18:34:00,67.5,49.8,29.86,West,266,3.0,15.0,53,0.00,,,0.00,meteohub,2013-04-08 22:34:00,
2013-04-08 18:40:00,67.5,49.8,29.86,West,262,6.0,14.0,53,0.00,,,0.00,meteohub,2013-04-08 22:40:00,
2013-04-08 18:45:00,67.5,49.8,29.86,West,273,8.0,18.0,53,0.00,,,0.00,meteohub,2013-04-08 22:45:00,
2013-04-08 18:50:00,67.3,50.0,29.86,WSW,257,4.0,18.0,54,0.00,,,0.00,meteohub,2013-04-08 22:50:00,
2013-04-08 18:55:00,67.5,50.2,29.86,WNW,286,7.0,17.0,54,0.00,,,0.00,meteohub,2013-04-08 22:55:00,
2013-04-08 19:00:00,67.5,50.2,29.86,West,269,8.0,17.0,54,0.00,,,0.00,meteohub,2013-04-08 23:00:00,
2013-04-08 19:05:00,67.6,50.4,29.86,NW,304,15.0,18.0,54,0.00,,,0.00,meteohub,2013-04-08 23:05:00,
2013-04-08 19:10:00,67.6,50.4,29.86,NW,309,9.0,18.0,54,0.00,,,0.00,meteohub,2013-04-08 23:10:00,
2013-04-08 19:16:00,67.6,50.4,29.85,SW,217,13.0,18.0,54,0.00,,,0.00,meteohub,2013-04-08 23:16:00,
2013-04-08 19:21:00,67.6,50.9,29.86,West,280,8.0,17.0,55,0.00,,,0.00,meteohub,2013-04-08 23:21:00,
2013-04-08 19:27:00,67.5,50.7,29.86,WNW,282,7.0,16.0,55,0.00,,,0.00,meteohub,2013-04-08 23:27:00,
2013-04-08 19:32:00,67.3,50.5,29.86,WNW,292,15.0,16.0,55,0.00,,,0.00,meteohub,2013-04-08 23:32:00,
2013-04-08 19:37:00,67.3,51.1,29.86,West,278,10.0,21.0,56,0.00,,,0.00,meteohub,2013-04-08 23:37:00,
2013-04-08 19:42:00,67.3,51.1,29.86,NW,323,13.0,21.0,56,0.00,,,0.00,meteohub,2013-04-08 23:42:00,
2013-04-08 19:47:00,66.9,50.7,29.86,West,279,6.0,21.0,56,0.00,,,0.00,meteohub,2013-04-08 23:47:00,
2013-04-08 19:52:00,66.7,50.5,29.86,West,263,11.0,16.0,56,0.00,,,0.00,meteohub,2013-04-08 23:52:00,
2013-04-08 19:58:00,66.7,51.1,29.85,NW,312,4.0,16.0,57,0.00,,,0.00,meteohub,2013-04-08 23:58:00,
2013-04-08 20:03:00,66.7,51.1,29.86,West,278,5.0,15.0,57,0.00,,,0.00,meteohub,2013-04-09 00:03:00,
2013-04-08 20:08:00,66.6,50.9,29.86,WNW,289,5.0,14.0,57,0.00,,,0.00,meteohub,2013-04-09 00:08:00,
2013-04-08 20:13:00,66.6,51.3,29.86,West,280,7.0,14.0,58,0.00,,,0.00,meteohub,2013-04-09 00:13:00,
2013-04-08 20:19:00,66.6,51.3,29.87,NW,320,3.0,14.0,58,0.00,,,0.00,meteohub,2013-04-09 00:19:00,
2013-04-08 20:24:00,66.6,51.3,29.87,WNW,300,10.0,16.0,58,0.00,,,0.00,meteohub,2013-04-09 00:24:00,
2013-04-08 20:29:00,66.6,51.3,29.88,NW,317,8.0,16.0,58,0.00,,,0.00,meteohub,2013-04-09 00:29:00,
2013-04-08 20:34:00,66.7,51.4,29.88,NW,315,7.0,16.0,58,0.00,,,0.00,meteohub,2013-04-09 00:34:00,
2013-04-08 20:39:00,66.7,51.4,29.88,WNW,286,9.0,15.0,58,0.00,,,0.00,meteohub,2013-04-09 00:39:00,
2013-04-08 20:45:00,66.7,51.4,29.88,WNW,284,6.0,15.0,58,0.00,,,0.00,meteohub,2013-04-09 00:45:00,
2013-04-08 20:50:00,66.7,51.4,29.88,West,279,3.0,18.0,58,0.00,,,0.00,meteohub,2013-04-09 00:50:00,
2013-04-08 20:55:00,66.7,51.4,29.88,NW,317,5.0,18.0,58,0.00,,,0.00,meteohub,2013-04-09 00:55:00,
2013-04-08 21:00:00,66.7,51.4,29.88,WNW,284,5.0,14.0,58,0.00,,,0.00,meteohub,2013-04-09 01:00:00,
2013-04-08 21:07:00,66.6,51.8,29.88,WNW,288,5.0,15.0,59,0.00,,,0.00,meteohub,2013-04-09 01:07:00,
2013-04-08 21:12:00,66.6,51.8,29.88,WNW,292,8.0,15.0,59,0.00,,,0.00,meteohub,2013-04-09 01:12:00,
2013-04-08 21:17:00,66.6,51.8,29.88,West,271,3.0,15.0,59,0.00,,,0.00,meteohub,2013-04-09 01:17:00,
2013-04-08 21:22:00,66.4,51.6,29.89,NW,321,9.0,15.0,59,0.00,,,0.00,meteohub,2013-04-09 01:22:00,
2013-04-08 21:27:00,66.4,51.6,29.89,West,263,9.0,14.0,59,0.00,,,0.00,meteohub,2013-04-09 01:27:00,
2013-04-08 21:32:00,66.4,51.6,29.89,WNW,296,3.0,14.0,59,0.00,,,0.00,meteohub,2013-04-09 01:32:00,
2013-04-08 21:38:00,66.4,51.6,29.89,WNW,303,6.0,13.0,59,0.00,,,0.00,meteohub,2013-04-09 01:38:00,
2013-04-08 21:43:00,66.4,51.6,29.89,NW,314,4.0,17.0,59,0.00,,,0.00,meteohub,2013-04-09 01:43:00,
2013-04-08 21:48:00,66.2,52.0,29.90,WNW,291,6.0,17.0,60,0.00,,,0.00,meteohub,2013-04-09 01:48:00,
2013-04-08 21:54:00,66.0,51.8,29.90,NW,315,9.0,17.0,60,0.00,,,0.00,meteohub,2013-04-09 01:54:00,
2013-04-08 21:59:00,66.2,52.0,29.90,NW,307,5.0,14.0,60,0.00,,,0.00,meteohub,2013-04-09 01:59:00,
2013-04-08 22:04:00,66.0,52.2,29.90,NW,317,8.0,14.0,61,0.00,,,0.00,meteohub,2013-04-09 02:04:00,
2013-04-08 22:10:00,66.0,52.2,29.90,NW,311,7.0,15.0,61,0.00,,,0.00,meteohub,2013-04-09 02:10:00,
2013-04-08 22:15:00,66.0,52.2,29.90,NW,307,8.0,15.0,61,0.00,,,0.00,meteohub,2013-04-09 02:15:00,
2013-04-08 22:20:00,66.0,52.2,29.91,NW,315,7.0,16.0,61,0.00,,,0.00,meteohub,2013-04-09 02:20:00,
2013-04-08 22:26:00,66.0,52.2,29.91,NNW,331,8.0,16.0,61,0.00,,,0.00,meteohub,2013-04-09 02:26:00,
2013-04-08 22:31:00,66.0,52.2,29.91,West,273,8.0,16.0,61,0.00,,,0.00,meteohub,2013-04-09 02:31:00,
2013-04-08 22:37:00,65.8,52.5,29.90,NW,319,5.0,13.0,62,0.00,,,0.00,meteohub,2013-04-09 02:37:00,
2013-04-08 22:42:00,65.8,52.5,29.91,NW,319,6.0,13.0,62,0.00,,,0.00,meteohub,2013-04-09 02:42:00,
2013-04-08 22:47:00,65.7,53.6,29.92,NW,304,6.0,14.0,65,0.00,,,0.00,meteohub,2013-04-09 02:47:00,
2013-04-08 22:52:00,65.1,54.0,29.91,NW,306,5.0,14.0,67,0.00,,,0.00,meteohub,2013-04-09 02:52:00,
2013-04-08 22:57:00,64.6,53.4,29.91,NW,314,4.0,14.0,67,0.00,,,0.00,meteohub,2013-04-09 02:57:00,
2013-04-08 23:02:00,64.6,53.4,29.92,WNW,303,4.0,11.0,67,0.00,,,0.00,meteohub,2013-04-09 03:02:00,
2013-04-08 23:07:00,64.6,53.4,29.92,WNW,287,8.0,11.0,67,0.00,,,0.00,meteohub,2013-04-09 03:07:00,
2013-04-08 23:12:00,64.6,52.9,29.92,NW,304,3.0,11.0,66,0.00,,,0.00,meteohub,2013-04-09 03:12:00,
2013-04-08 23:18:00,64.4,52.9,29.92,NW,311,7.0,10.0,66,0.00,,,0.00,meteohub,2013-04-09 03:18:00,
2013-04-08 23:23:00,64.6,52.9,29.92,NNW,338,7.0,11.0,66,0.00,,,0.00,meteohub,2013-04-09 03:23:00,
2013-04-08 23:28:00,64.8,53.1,29.92,NW,313,10.0,17.0,66,0.00,,,0.00,meteohub,2013-04-09 03:28:00,
2013-04-08 23:34:00,64.6,53.4,29.93,NW,307,8.0,17.0,67,0.00,,,0.00,meteohub,2013-04-09 03:34:00,
2013-04-08 23:39:00,64.2,53.4,29.93,NW,323,5.0,17.0,68,0.00,,,0.00,meteohub,2013-04-09 03:39:00,
2013-04-08 23:44:00,63.9,53.4,29.93,NW,314,7.0,17.0,69,0.00,,,0.00,meteohub,2013-04-09 03:44:00,
2013-04-08 23:49:00,63.9,54.0,29.94,WNW,302,6.0,12.0,70,0.00,,,0.00,meteohub,2013-04-09 03:49:00,
2013-04-08 23:54:00,63.7,54.1,29.94,WNW,297,5.0,10.0,71,0.00,,,0.00,meteohub,2013-04-09 03:54:00,